White Oak, Iowa
Current Conditions -  °F | °C
As of 2:55 PM on Thursday 23 Oct 2014 (Local Time) from KIKV Reporting Station
Few Clouds Few Clouds  
Wind Chill: 68°   Ceiling: Unl
Heat Index: 68°   Visibility: 10mi
Dew Point: 55°   Wind: 8mph
Humidity: 64%   Direction: 320°NW
Pressure: 30"   Gusts: NA
Location:  41.8082°N, 93.529°W
Report Text: KIKV 231955Z AUTO 32007KT 10SM FEW026 FEW032 20/13 A3000 RMK AO2
Loading
Personal Weather Stations






























Interactive Weather Map
Tropical Storm Tracking
New forecast layout! Learn more

10-Day Weather Forecast

Advertisements
Track Severe Weather on mobile